Metar z połowy godziny Komunikat METAR ze strony awiacja.imgw.pl Metar G00 EPLL METAR EPLL 230330Z 19007KT 140V220 9999 -RA BKN032 OVC036 08/07 Q0994 =